Highland, New York
Current Conditions -  °F | °C
As of 11:26 PM on Wednesday 22 Oct 2014 (Local Time) from KPOU Reporting Station
Moderate Rain Moderate Rain  
Wind Chill: 50°   Ceiling: 1200
Heat Index: 50°   Visibility: 2.5mi
Dew Point: 46°   Wind: 10mph
Humidity: 86%   Direction: 30°NNE
Pressure: 29.85"   Gusts: 22mph
Location:  41.72°N, 73.96°W
Report Text: KPOU 230326Z AUTO 03009G19KT 2 1/2SM RA BR OVC012 10/08 A2985 RMK AO2 P0019 T01000078 TSNO
Loading
Personal Weather Stations






























Interactive Weather Map
Tropical Storm Tracking
New forecast layout! Learn more

10-Day Weather Forecast

Advertisements
Track Severe Weather on mobile